METAR Data
IDs: Format: Raw Decoded Include TAF

Data at: 2010 UTC 18 Apr 2021

KORL 181953Z VRB04KT 10SM CLR 27/20 A2986 RMK AO2 SLP115 T02720200
KORL 181853Z VRB05KT 10SM CLR 26/19 A2989 RMK AO2 SLP123 T02610189
KORL 181753Z 03009KT 10SM FEW065 26/19 A2991 RMK AO2 RAE06 SLP130 P0000 60000 T02560189 10278 20233 58011
KORL 181725Z 03013KT 10SM SCT027 BKN055 OVC080 25/19 A2992 RMK AO2 RAE06 P0000 T02500189
KORL 181653Z 36013KT 10SM -RA SCT018 BKN025 BKN033 26/21 A2992 RMK AO2 RAB50 SLP136 P0000 T02560206
KORL 181553Z 24009KT 10SM BKN030 BKN080 28/21 A2994 RMK AO2 SLP142 T02780206
KORL 181453Z 25010KT 10SM CLR 27/22 A2994 RMK AO2 SLP140 T02720217 53006
KORL 181435Z 25012KT 10SM SCT018 SCT047 27/22 A2993 RMK AO2 T02670217
KORL 181406Z 22006KT 10SM BKN016 BKN031 OVC043 26/22 A2993 RMK AO2 T02560222
KORL 181353Z 24005KT 10SM BKN014 BKN029 OVC045 26/22 A2993 RMK AO2 SLP137 T02560217
KORL 181330Z VRB03KT 9SM BKN012 OVC017 25/22 A2992 RMK AO2 T02500222
KORL 181253Z 00000KT 10SM OVC008 23/21 A2992 RMK AO2 SLP136 T02330211
KORL 181153Z 00000KT 10SM BKN008 OVC037 23/21 A2992 RMK AO2 SLP135 T02280206 10228 20211 51014
KORL 181053Z AUTO 00000KT 10SM OVC008 22/20 A2991 RMK AO2 SLP131 T02220200
KORL 181049Z AUTO 00000KT 10SM OVC008 22/20 A2991 RMK AO2
KORL 181018Z AUTO 16004KT 10SM BKN010 21/19 A2990 RMK AO2 T02110194
KORL 180953Z AUTO 15009KT 10SM CLR 21/19 A2988 RMK AO2 SLP120 T02110194
KORL 180853Z AUTO 15003KT 10SM CLR 21/20 A2989 RMK AO2 SLP124 T02110200 58007
KORL 180753Z AUTO 11005KT 10SM SCT019 21/19 A2991 RMK AO2 SLP129 T02110194
KORL 180749Z AUTO 11003KT 10SM SCT019 21/19 A2991 RMK AO2
KORL 180653Z AUTO 06004KT 10SM SCT009 BKN024 OVC038 22/20 A2991 RMK AO2 SLP131 T02170200
KORL 180630Z AUTO 07004KT 10SM BKN009 BKN027 22/20 A2990 RMK AO2 T02220200
KORL 180606Z AUTO 06005KT 10SM SCT009 BKN016 OVC026 22/20 A2991 RMK AO2 T02220200
KORL 180553Z AUTO 06008KT 10SM BKN009 OVC016 23/20 A2991 RMK AO2 CIG 009V013 SLP132 T02280200 10283 20228 50004
KORL 180551Z AUTO 03009KT 10SM BKN009 OVC016 23/20 A2991 RMK AO2
KORL 180453Z AUTO 09005KT 10SM OVC022 24/21 A2992 RMK AO2 SLP132 T02390211 403110211
KORL 180435Z AUTO 08004KT 10SM BKN022 BKN032 OVC060 23/21 A2992 RMK AO2 T02330211
KORL 180353Z AUTO 06005KT 10SM FEW024 OVC041 24/21 A2992 RMK AO2 SLP133 T02440211
KORL 180327Z AUTO 30006KT 10SM SCT027 BKN032 BKN040 26/21 A2992 RMK AO2 T02610206
KORL 180316Z AUTO 31005KT 10SM BKN028 26/21 A2991 RMK AO2 T02560206
KORL 180253Z AUTO 28008KT 10SM BKN030 26/21 A2990 RMK AO2 SLP127 T02610206 53021
KORL 180153Z 27006KT 10SM CLR 26/20 A2988 RMK AO2 SLP120 T02610200
KORL 180053Z 25009KT 10SM CLR 27/20 A2986 RMK AO2 SLP113 T02720200
KORL 172353Z 27011KT 10SM CLR 28/19 A2984 RMK AO2 SLP107 T02830194 10311 20278 53010
KORL 172253Z 24009KT 10SM FEW002 FEW045 SCT065 29/19 A2982 RMK AO2 SLP101 T02940194
KORL 172237Z 24011KT 10SM FEW002 30/19 A2982 RMK AO2 T03000194
KORL 172153Z 24009KT 10SM BKN047 BKN060 31/19 A2982 RMK AO2 SLP098 T03060194
KORL 172053Z 26012KT 10SM FEW049 FEW070 31/19 A2981 RMK AO2 SLP096 T03060189 56018
KORL 171953Z AUTO 26013G18KT 10SM SCT044 31/19 A2981 RMK AO2 SLP098 T03110194
KORL 171853Z 24013KT 10SM SCT038 BKN055 31/19 A2984 RMK AO2 SLP105 T03060194
KORL 171753Z 27004KT 10SM FEW037 SCT046 BKN100 28/22 A2986 RMK AO2 SLP115 T02830217 10289 20222 58012
KORL 171653Z 21014KT 10SM BKN031 BKN048 BKN110 28/21 A2988 RMK AO2 SLP119 T02830206
KORL 171647Z 24011KT 10SM BKN031 BKN048 OVC100 28/21 A2988 RMK AO2
KORL 171632Z 24010KT 10SM VCTS BKN029 28/21 A2988 RMK AO2 T02780206
KORL 171601Z 25013KT 10SM SCT026 SCT032 27/21 A2989 RMK AO2 T02720206
KORL 171553Z 25010KT 10SM BKN026 BKN032 27/21 A2989 RMK AO2 SLP126 T02720211
KORL 171550Z 26011KT 10SM BKN026 27/21 A2990 RMK AO2
KORL 171512Z 23011KT 10SM SCT022 27/21 A2989 RMK AO2 T02720211
KORL 171500Z 21011KT 10SM BKN021 26/21 A2990 RMK AO2 LTG DSNT NW T02610211
KORL 171453Z 24012KT 10SM OVC012 26/21 A2991 RMK AO2 LTG DSNT NW SLP130 T02560211 50010
KORL 171416Z 22004KT 6SM HZ OVC012 24/21 A2989 RMK AO2 T02440211
KORL 171400Z 21004KT 5SM HZ BKN017 24/21 A2990 RMK AO2 LTG DSNT N AND NW T02440211
KORL 171353Z VRB03KT 5SM HZ BKN009 24/21 A2991 RMK AO2 LTG DSNT NW SLP131 T02440211
KORL 171300Z 22008KT 4SM BR BKN009 23/21 A2990 RMK AO2 LTG DSNT N T02330211
KORL 171253Z 21007KT 4SM BR FEW010 FEW015 23/21 A2990 RMK AO2 LTG DSNT N AND NW SLP128 T02330211
KORL 171223Z 21006KT 5SM BR BKN008 23/21 A2989 RMK AO2 T02280206
KORL 171202Z 20006KT 5SM BR BKN010 22/21 A2988 RMK AO2 T02220206
KORL 171153Z 22004KT 5SM BR SCT011 22/21 A2987 RMK AO2 SLP119 T02220206 10228 20211 53017
KORL 171053Z 21008KT 10SM CLR 22/20 A2984 RMK AO2 SLP108 T02220200
KORL 170953Z AUTO 23008KT 10SM FEW075 23/19 A2983 RMK AO2 SLP105 T02280194
KORL 170853Z AUTO 22007KT 10SM FEW070 23/19 A2982 RMK AO2 SLP102 T02280194 56010